Terminal Aerodrome Forecast
Issued by NWS

Home | Current Version | Previous Version | Text Only | Print | Product List | Glossary Off
Versions: 1 2 3 4 5 6 7 8 9 10 11 12 13 14 15 16 17 18 19

249
FTUS42 KMHX 221456 AAA
TAFISO
TAF AMD
KISO 221456Z 2215/2312 01005KT P6SM BKN020
     FM221700 34008KT P6SM VCSH OVC035
     FM222000 34008KT P6SM -SHRA BKN040
     FM230200 VRB04KT P6SM BKN030
     FM230800 34005KT P6SM BKN009
      AMD LTD TO CLD VIS AND WIND=

USA.gov is the U.S. government's official web portal to all federal, state and local government web resources and services.